createdAt,value
2022-10-28T00:00:22.440Z,3.13
2022-10-28T00:02:59.320Z,3.00
2022-10-28T00:05:38.073Z,3.08
2022-10-28T00:08:06.388Z,3.40
2022-10-28T00:10:36.503Z,3.00
2022-10-28T00:13:10.409Z,3.45
2022-10-28T00:15:40.665Z,2.90
2022-10-28T00:18:08.628Z,3.20
2022-10-28T00:20:39.612Z,3.30
2022-10-28T00:23:13.356Z,3.40
2022-10-28T00:25:48.511Z,3.40
2022-10-28T00:28:23.481Z,3.20
2022-10-28T00:30:54.442Z,2.95
2022-10-28T00:33:24.967Z,3.38
2022-10-28T00:36:07.435Z,3.00
2022-10-28T00:38:36.194Z,3.50
2022-10-28T00:41:10.247Z,3.45
2022-10-28T00:43:54.955Z,3.38
2022-10-28T00:46:42.179Z,3.17
2022-10-28T00:49:19.621Z,3.22
2022-10-28T00:52:02.778Z,3.13
2022-10-28T00:54:38.054Z,3.17
2022-10-28T00:57:16.928Z,4.15
2022-10-28T01:00:01.184Z,3.35
2022-10-28T01:02:37.704Z,3.67
2022-10-28T01:05:16.002Z,3.10
2022-10-28T01:08:02.237Z,3.92
2022-10-28T01:10:49.241Z,3.53
2022-10-28T01:13:39.581Z,4.22
2022-10-28T01:17:00.620Z,3.30
2022-10-28T01:19:43.749Z,3.28
2022-10-28T01:23:06.220Z,3.22
2022-10-28T01:26:11.973Z,3.88
2022-10-28T01:29:09.579Z,3.28
2022-10-28T01:31:45.454Z,3.90
2022-10-28T01:34:43.117Z,3.40
2022-10-28T01:38:02.373Z,3.70
2022-10-28T01:41:00.813Z,4.88
2022-10-28T01:44:21.173Z,3.73
2022-10-28T01:46:58.223Z,3.85
2022-10-28T01:49:39.779Z,3.90
2022-10-28T01:52:14.659Z,3.90
2022-10-28T01:54:51.456Z,3.88
2022-10-28T01:57:26.367Z,3.70
2022-10-28T02:00:02.449Z,4.18
2022-10-28T02:02:52.176Z,3.92
2022-10-28T02:05:41.051Z,3.50
2022-10-28T02:08:25.711Z,3.42
2022-10-28T02:11:04.389Z,3.42
2022-10-28T02:17:27.912Z,3.67
2022-10-28T02:20:28.669Z,3.63
2022-10-28T02:23:11.073Z,3.55
2022-10-28T02:25:56.144Z,3.40
2022-10-28T02:28:43.074Z,3.30
2022-10-28T02:31:32.353Z,3.70
2022-10-28T02:34:09.897Z,3.55
2022-10-28T02:36:46.741Z,3.85
2022-10-28T02:39:35.153Z,3.80
2022-10-28T02:42:28.477Z,3.88
2022-10-28T02:45:18.950Z,3.45
2022-10-28T02:47:57.499Z,4.22
2022-10-28T02:50:36.883Z,3.88
2022-10-28T02:53:20.576Z,3.80
2022-10-28T02:55:54.726Z,4.00
2022-10-28T03:01:06.489Z,3.75
2022-10-28T03:03:38.845Z,3.80
2022-10-28T03:06:13.174Z,3.65
2022-10-28T03:08:43.970Z,3.92
2022-10-28T03:11:20.360Z,3.63
2022-10-28T03:13:56.740Z,4.85
2022-10-28T03:16:26.889Z,3.67
2022-10-28T03:18:59.829Z,4.18
2022-10-28T03:21:31.238Z,4.00
2022-10-28T03:24:07.114Z,3.97
2022-10-28T03:26:37.144Z,4.32
2022-10-28T03:29:18.121Z,3.60
2022-10-28T03:31:58.047Z,3.38
2022-10-28T03:34:29.166Z,3.65
2022-10-28T03:36:59.800Z,3.95
2022-10-28T03:39:36.419Z,3.90
2022-10-28T03:42:20.082Z,4.00
2022-10-28T03:44:53.315Z,3.67
2022-10-28T03:47:29.232Z,4.20
2022-10-28T03:50:24.993Z,3.83
2022-10-28T03:53:13.312Z,3.80
2022-10-28T03:55:44.685Z,3.85
2022-10-28T03:58:14.900Z,4.13
2022-10-28T04:00:42.840Z,4.05
2022-10-28T04:03:18.581Z,3.85
2022-10-28T04:05:59.675Z,3.90
2022-10-28T04:08:38.301Z,3.97
2022-10-28T04:11:19.480Z,3.85
2022-10-28T04:13:47.316Z,3.60
2022-10-28T04:16:18.123Z,4.35
2022-10-28T04:18:45.969Z,3.20
2022-10-28T04:21:16.038Z,3.38
2022-10-28T04:23:50.669Z,3.80
2022-10-28T04:26:24.210Z,4.30
2022-10-28T04:28:51.943Z,3.83
2022-10-28T04:31:21.972Z,4.57
2022-10-28T04:33:53.177Z,3.70
2022-10-28T04:36:20.714Z,4.50
2022-10-28T04:38:48.614Z,4.93
2022-10-28T04:41:25.398Z,4.00
2022-10-28T04:43:56.329Z,4.10
2022-10-28T04:46:29.389Z,3.50
2022-10-28T04:48:59.779Z,4.25
2022-10-28T04:51:27.841Z,3.42
2022-10-28T04:53:55.376Z,3.70
2022-10-28T04:56:25.045Z,4.15
2022-10-28T04:58:53.039Z,3.95
2022-10-28T05:01:24.008Z,3.78
2022-10-28T05:03:54.349Z,4.72
2022-10-28T05:06:22.834Z,4.07
2022-10-28T05:08:50.415Z,4.65
2022-10-28T05:11:18.043Z,4.65
2022-10-28T05:13:46.888Z,4.32
2022-10-28T05:16:14.646Z,4.70
2022-10-28T05:21:12.761Z,4.55
2022-10-28T05:23:49.546Z,4.40
2022-10-28T05:26:20.330Z,5.00
2022-10-28T05:28:51.206Z,4.70
2022-10-28T05:31:19.167Z,4.65
2022-10-28T05:33:52.410Z,5.05
2022-10-28T05:36:20.147Z,4.90
2022-10-28T05:38:50.509Z,4.80
2022-10-28T05:41:19.383Z,5.20
2022-10-28T05:43:47.510Z,5.07
2022-10-28T05:46:19.667Z,5.28
2022-10-28T05:48:49.173Z,5.13
2022-10-28T05:51:23.803Z,5.20
2022-10-28T05:53:51.610Z,5.45
2022-10-28T05:56:19.085Z,5.70
2022-10-28T06:01:16.173Z,5.80
2022-10-28T06:03:46.144Z,5.70
2022-10-28T06:06:13.832Z,5.72
2022-10-28T06:08:41.362Z,5.97
2022-10-28T06:11:07.249Z,5.28
2022-10-28T06:13:35.116Z,5.82
2022-10-28T06:16:02.922Z,6.10
2022-10-28T06:18:32.999Z,6.05
2022-10-28T06:21:03.056Z,6.82
2022-10-28T06:23:33.651Z,5.25
2022-10-28T06:26:03.474Z,5.57
2022-10-28T06:28:31.462Z,5.72
2022-10-28T06:31:07.471Z,6.07
2022-10-28T06:33:35.892Z,5.32
2022-10-28T06:36:03.749Z,5.22
2022-10-28T06:38:31.140Z,5.75
2022-10-28T06:41:14.096Z,5.60
2022-10-28T06:43:41.686Z,6.32
2022-10-28T06:46:22.829Z,5.70
2022-10-28T06:49:08.060Z,5.25
2022-10-28T06:51:35.639Z,5.70
2022-10-28T06:54:03.211Z,6.05
2022-10-28T06:56:30.882Z,5.80
2022-10-28T06:58:58.562Z,5.57
2022-10-28T07:01:26.106Z,6.10
2022-10-28T07:03:53.815Z,5.90
2022-10-28T07:06:21.687Z,5.85
2022-10-28T07:08:49.350Z,6.00
2022-10-28T07:11:24.523Z,6.15
2022-10-28T07:13:52.439Z,6.15
2022-10-28T07:16:19.982Z,7.40
2022-10-28T07:18:50.454Z,6.00
2022-10-28T07:21:18.493Z,6.15
2022-10-28T07:23:47.357Z,6.50
2022-10-28T07:26:16.652Z,5.68
2022-10-28T07:28:44.397Z,5.13
2022-10-28T07:33:39.024Z,4.88
2022-10-28T07:36:07.235Z,5.88
2022-10-28T07:38:35.515Z,5.88
2022-10-28T07:41:10.573Z,5.63
2022-10-28T07:43:39.060Z,5.32
2022-10-28T07:46:07.720Z,5.93
2022-10-28T07:48:39.261Z,5.70
2022-10-28T07:51:08.569Z,5.13
2022-10-28T07:53:42.036Z,6.35
2022-10-28T07:56:13.970Z,5.45
2022-10-28T07:58:47.039Z,5.10
2022-10-28T08:01:17.153Z,5.47
2022-10-28T08:03:45.574Z,6.53
2022-10-28T08:06:19.516Z,5.55
2022-10-28T08:08:48.890Z,5.82
2022-10-28T08:11:19.478Z,4.93
2022-10-28T08:13:47.261Z,5.65
2022-10-28T08:16:19.169Z,5.10
2022-10-28T08:18:48.997Z,4.90
2022-10-28T08:21:16.947Z,5.57
2022-10-28T08:23:49.786Z,5.15
2022-10-28T08:26:17.603Z,5.28
2022-10-28T08:28:47.679Z,5.20
2022-10-28T08:31:15.434Z,5.20
2022-10-28T08:33:45.427Z,5.50
2022-10-28T08:36:16.686Z,5.35
2022-10-28T08:38:45.848Z,4.50
2022-10-28T08:41:48.054Z,4.95
2022-10-28T08:44:31.177Z,4.57
2022-10-28T08:47:34.862Z,4.57
2022-10-28T08:50:15.490Z,4.60
2022-10-28T08:53:05.626Z,5.28
2022-10-28T08:55:44.760Z,4.70
2022-10-28T08:58:18.764Z,4.65
2022-10-28T09:03:27.572Z,5.00
2022-10-28T09:06:05.025Z,4.32
2022-10-28T09:08:36.648Z,5.03
2022-10-28T09:11:16.187Z,4.85
2022-10-28T09:14:09.552Z,5.07
2022-10-28T09:16:55.796Z,4.50
2022-10-28T09:19:52.592Z,4.13
2022-10-28T09:22:53.372Z,4.90
2022-10-28T09:25:43.854Z,4.20
2022-10-28T09:28:31.691Z,4.43
2022-10-28T09:31:02.328Z,4.82
2022-10-28T09:33:35.508Z,4.53
2022-10-28T09:36:12.215Z,4.03
2022-10-28T09:38:40.299Z,3.97
2022-10-28T09:41:26.326Z,3.80
2022-10-28T09:43:59.510Z,4.20
2022-10-28T09:46:36.180Z,3.57
2022-10-28T09:49:13.054Z,4.00
2022-10-28T09:51:50.935Z,4.00
2022-10-28T09:54:29.813Z,3.35
2022-10-28T09:56:59.522Z,3.38
2022-10-28T09:59:26.799Z,3.53
2022-10-28T10:01:54.232Z,3.33
2022-10-28T10:04:27.301Z,3.58
2022-10-28T10:06:59.664Z,3.47
2022-10-28T10:09:32.516Z,3.55
2022-10-28T10:12:15.377Z,3.33
2022-10-28T10:14:48.016Z,3.30
2022-10-28T10:17:19.771Z,2.92
2022-10-28T10:20:17.665Z,4.10
2022-10-28T10:22:48.229Z,3.00
2022-10-28T10:25:21.559Z,3.30
2022-10-28T10:28:05.131Z,3.38
2022-10-28T10:30:51.382Z,3.75
2022-10-28T10:33:37.986Z,2.95
2022-10-28T10:36:10.683Z,3.20
2022-10-28T10:38:46.306Z,3.15
2022-10-28T10:41:42.378Z,3.85
2022-10-28T10:44:22.073Z,3.20
2022-10-28T10:46:55.328Z,3.20
2022-10-28T10:49:22.897Z,3.93
2022-10-28T10:51:57.363Z,3.40
2022-10-28T10:54:31.168Z,3.80
2022-10-28T10:57:31.333Z,3.90
2022-10-28T11:00:01.065Z,3.63
2022-10-28T11:02:35.054Z,3.67
2022-10-28T11:05:21.698Z,3.70
2022-10-28T11:07:53.321Z,3.85
2022-10-28T11:10:27.078Z,3.17
2022-10-28T11:13:01.342Z,3.47
2022-10-28T11:15:30.690Z,3.40
2022-10-28T11:18:02.873Z,3.75
2022-10-28T11:20:49.295Z,4.00
2022-10-28T11:23:24.742Z,3.55
2022-10-28T11:26:01.130Z,3.90
2022-10-28T11:29:00.320Z,3.63
2022-10-28T11:31:52.431Z,3.13
2022-10-28T11:34:38.396Z,3.45
2022-10-28T11:37:12.252Z,3.63
2022-10-28T11:42:57.012Z,3.63
2022-10-28T11:46:01.962Z,3.85
2022-10-28T11:49:00.666Z,3.50
2022-10-28T11:51:52.178Z,3.72
2022-10-28T11:54:45.125Z,2.72
2022-10-28T11:57:41.590Z,3.40
2022-10-28T12:00:24.132Z,3.20
2022-10-28T12:03:28.683Z,3.22
2022-10-28T12:06:12.265Z,4.40
2022-10-28T12:09:11.986Z,4.07
2022-10-28T12:12:13.635Z,3.70
2022-10-28T12:14:56.896Z,3.95
2022-10-28T12:17:58.690Z,3.40
2022-10-28T12:20:40.159Z,3.50
2022-10-28T12:23:20.294Z,3.70
2022-10-28T12:25:52.735Z,3.58
2022-10-28T12:28:26.112Z,3.75
2022-10-28T12:30:54.788Z,4.05
2022-10-28T12:33:39.467Z,4.13
2022-10-28T12:36:10.236Z,3.35
2022-10-28T12:38:40.751Z,4.30
2022-10-28T12:41:15.708Z,4.55
2022-10-28T12:43:58.723Z,4.40
2022-10-28T12:46:44.972Z,3.25
2022-10-28T12:49:20.271Z,3.30
2022-10-28T12:51:48.156Z,3.95
2022-10-28T12:54:25.548Z,3.22
2022-10-28T12:56:59.827Z,3.70
2022-10-28T12:59:32.883Z,3.92
2022-10-28T13:02:02.631Z,4.17
2022-10-28T13:04:30.309Z,4.00
2022-10-28T13:07:03.613Z,3.35
2022-10-28T13:09:47.195Z,3.60
2022-10-28T13:12:52.941Z,3.90
2022-10-28T13:16:08.912Z,3.17
2022-10-28T13:19:00.804Z,3.60
2022-10-28T13:21:43.640Z,3.85
2022-10-28T13:24:24.723Z,3.83
2022-10-28T13:26:52.529Z,4.10
2022-10-28T13:29:29.976Z,3.90
2022-10-28T13:31:57.587Z,3.55
2022-10-28T13:34:37.463Z,4.70
2022-10-28T13:37:07.304Z,3.80
2022-10-28T13:39:37.691Z,4.22
2022-10-28T13:42:19.470Z,4.32
2022-10-28T13:44:57.568Z,3.83
2022-10-28T13:47:32.228Z,3.22
2022-10-28T13:50:08.813Z,3.47
2022-10-28T13:52:41.406Z,3.40
2022-10-28T13:55:46.487Z,3.70
2022-10-28T13:58:25.608Z,3.38
2022-10-28T14:00:54.272Z,4.22
2022-10-28T14:03:26.617Z,4.25
2022-10-28T14:05:57.808Z,3.90
2022-10-28T14:08:33.321Z,4.07
2022-10-28T14:11:22.734Z,3.95
2022-10-28T14:13:56.055Z,4.35
2022-10-28T14:16:25.559Z,3.72
2022-10-28T14:19:01.075Z,4.10
2022-10-28T14:21:51.562Z,3.75
2022-10-28T14:24:40.196Z,4.28
2022-10-28T14:27:16.014Z,3.90
2022-10-28T14:30:00.197Z,4.47
2022-10-28T14:32:33.023Z,3.60
2022-10-28T14:35:14.586Z,3.90
2022-10-28T14:38:24.163Z,5.03
2022-10-28T14:41:16.741Z,4.25
2022-10-28T14:44:15.467Z,3.75
2022-10-28T14:47:19.635Z,4.20
2022-10-28T14:50:20.071Z,4.95
2022-10-28T14:53:08.732Z,4.35
2022-10-28T14:55:50.239Z,4.47
2022-10-28T14:58:34.800Z,4.47
2022-10-28T15:01:18.967Z,4.75
2022-10-28T15:03:57.425Z,3.80
2022-10-28T15:06:25.355Z,4.72
2022-10-28T15:08:57.685Z,4.45
2022-10-28T15:11:25.684Z,4.35
2022-10-28T15:13:53.879Z,4.18
2022-10-28T15:16:25.905Z,4.60
2022-10-28T15:18:54.460Z,4.10
2022-10-28T15:21:22.854Z,4.10
2022-10-28T15:24:01.449Z,4.60
2022-10-28T15:26:31.223Z,5.22
2022-10-28T15:29:00.555Z,4.25
2022-10-28T15:31:27.949Z,4.57
2022-10-28T15:33:55.325Z,4.90
2022-10-28T15:36:25.443Z,4.03
2022-10-28T15:39:06.395Z,4.57
2022-10-28T15:41:45.189Z,5.05
2022-10-28T15:44:38.993Z,4.35
2022-10-28T15:47:28.140Z,5.20
2022-10-28T15:50:17.529Z,5.40
2022-10-28T15:52:52.351Z,4.75
2022-10-28T15:55:21.780Z,4.90
2022-10-28T15:57:56.912Z,5.00
2022-10-28T16:00:28.976Z,5.35
2022-10-28T16:03:05.540Z,4.60
2022-10-28T16:05:33.127Z,4.82
2022-10-28T16:08:07.509Z,4.50
2022-10-28T16:10:43.420Z,4.78
2022-10-28T16:13:19.032Z,4.38
2022-10-28T16:15:59.877Z,4.55
2022-10-28T16:18:29.324Z,4.57
2022-10-28T16:20:59.071Z,4.80
2022-10-28T16:23:35.970Z,5.38
2022-10-28T16:26:03.846Z,4.53
2022-10-28T16:28:32.324Z,3.72
2022-10-28T16:31:02.450Z,4.35
2022-10-28T16:33:34.706Z,4.50
2022-10-28T16:36:02.820Z,5.00
2022-10-28T16:38:31.472Z,4.60
2022-10-28T16:41:00.542Z,6.50
2022-10-28T16:43:32.289Z,4.95
2022-10-28T16:46:00.901Z,5.88
2022-10-28T16:48:30.583Z,6.00
2022-10-28T16:51:07.204Z,5.68
2022-10-28T16:53:36.518Z,5.72
2022-10-28T16:56:08.639Z,5.45
2022-10-28T16:58:42.521Z,6.38
2022-10-28T17:01:11.428Z,5.60
2022-10-28T17:03:41.690Z,6.15
2022-10-28T17:06:10.667Z,6.25
2022-10-28T17:11:29.025Z,4.40
2022-10-28T17:13:59.211Z,5.25
2022-10-28T17:16:26.947Z,4.38
2022-10-28T17:18:54.349Z,4.70
2022-10-28T17:21:21.833Z,6.05
2022-10-28T17:23:49.528Z,5.18
2022-10-28T17:26:17.500Z,6.82
2022-10-28T17:28:45.200Z,6.85
2022-10-28T17:31:13.127Z,5.78
2022-10-28T17:33:43.116Z,5.78
2022-10-28T17:36:10.968Z,4.88
2022-10-28T17:38:38.837Z,5.70
2022-10-28T17:41:07.328Z,6.32
2022-10-28T17:43:34.631Z,5.70
2022-10-28T17:46:07.524Z,5.97
2022-10-28T17:48:37.311Z,5.53
2022-10-28T17:51:05.200Z,5.60
2022-10-28T17:53:35.576Z,5.80
2022-10-28T17:56:05.409Z,4.63
2022-10-28T17:58:33.551Z,4.50
2022-10-28T18:01:06.998Z,4.80
2022-10-28T18:03:38.961Z,5.13
2022-10-28T18:06:13.460Z,4.82
2022-10-28T18:08:43.468Z,5.53
2022-10-28T18:11:13.564Z,4.50
2022-10-28T18:13:49.039Z,5.18
2022-10-28T18:16:22.391Z,5.35
2022-10-28T18:18:54.271Z,5.28
2022-10-28T18:21:22.802Z,4.65
2022-10-28T18:23:54.516Z,6.40
2022-10-28T18:26:22.453Z,5.40
2022-10-28T18:28:52.751Z,8.85
2022-10-28T18:31:23.797Z,6.82
2022-10-28T18:33:51.674Z,9.48
2022-10-28T18:36:21.647Z,9.07
2022-10-28T18:38:50.602Z,8.10
2022-10-28T18:41:23.678Z,7.43
2022-10-28T18:43:59.264Z,8.13
2022-10-28T18:46:27.816Z,9.20
2022-10-28T18:51:28.867Z,6.78
2022-10-28T18:53:58.623Z,6.93
2022-10-28T18:56:34.461Z,6.30
2022-10-28T18:59:03.845Z,5.97
2022-10-28T19:01:32.712Z,6.05
2022-10-28T19:04:05.547Z,6.53
2022-10-28T19:06:34.487Z,6.53
2022-10-28T19:09:04.549Z,5.35
2022-10-28T19:11:34.912Z,6.47
2022-10-28T19:14:05.158Z,6.10
2022-10-28T19:16:34.404Z,6.00
2022-10-28T19:19:05.096Z,6.15
2022-10-28T19:21:42.303Z,6.68
2022-10-28T19:24:12.816Z,7.07
2022-10-28T19:26:41.369Z,7.57
2022-10-28T19:29:10.772Z,6.57
2022-10-28T19:31:40.527Z,6.38
2022-10-28T19:34:07.951Z,6.65
2022-10-28T19:36:35.244Z,7.30
2022-10-28T19:39:05.533Z,6.63
2022-10-28T19:41:36.456Z,8.00
2022-10-28T19:44:10.669Z,6.53
2022-10-28T19:46:43.623Z,7.72
2022-10-28T19:49:11.513Z,7.55
2022-10-28T19:51:41.400Z,7.45
2022-10-28T19:54:15.893Z,7.07
2022-10-28T19:56:47.300Z,7.43
2022-10-28T19:59:15.624Z,6.70
2022-10-28T20:01:44.665Z,7.43
2022-10-28T20:04:12.150Z,7.95
2022-10-28T20:06:42.156Z,8.45
2022-10-28T20:09:09.442Z,8.30
2022-10-28T20:11:38.651Z,7.13
2022-10-28T20:14:14.380Z,7.30
2022-10-28T20:16:43.068Z,7.30
2022-10-28T20:19:11.066Z,7.68
2022-10-28T20:21:39.356Z,7.30
2022-10-28T20:24:09.494Z,7.90
2022-10-28T20:26:39.428Z,8.23
2022-10-28T20:29:12.456Z,7.85
2022-10-28T20:31:42.066Z,7.13
2022-10-28T20:34:13.564Z,7.45
2022-10-28T20:36:47.275Z,7.30
2022-10-28T20:39:20.889Z,7.57
2022-10-28T20:41:52.450Z,7.40
2022-10-28T20:44:22.730Z,7.85
2022-10-28T20:46:50.649Z,7.68
2022-10-28T20:49:18.376Z,6.20
2022-10-28T20:51:46.349Z,7.35
2022-10-28T20:54:13.830Z,7.25
2022-10-28T20:59:24.014Z,6.90
2022-10-28T21:01:54.378Z,7.57
2022-10-28T21:04:21.993Z,7.55
2022-10-28T21:06:52.166Z,7.38
2022-10-28T21:09:20.061Z,8.00
2022-10-28T21:11:47.482Z,6.95
2022-10-28T21:14:14.708Z,7.72
2022-10-28T21:16:42.492Z,8.18
2022-10-28T21:19:10.294Z,8.30
2022-10-28T21:21:37.928Z,7.70
2022-10-28T21:24:06.519Z,8.25
2022-10-28T21:26:37.103Z,8.07
2022-10-28T21:29:04.954Z,7.65
2022-10-28T21:31:32.393Z,8.32
2022-10-28T21:34:01.817Z,7.35
2022-10-28T21:36:34.369Z,7.35
2022-10-28T21:39:02.432Z,7.35
2022-10-28T21:41:29.997Z,7.53
2022-10-28T21:44:00.737Z,7.57
2022-10-28T21:46:28.213Z,7.95
2022-10-28T21:48:56.031Z,7.32
2022-10-28T21:51:23.505Z,7.28
2022-10-28T21:53:50.655Z,8.18
2022-10-28T21:56:19.983Z,7.40
2022-10-28T21:58:48.832Z,8.23
2022-10-28T22:01:21.630Z,7.35
2022-10-28T22:03:49.889Z,7.10
2022-10-28T22:06:16.988Z,7.82
2022-10-28T22:08:44.223Z,7.10
2022-10-28T22:11:19.581Z,7.55
2022-10-28T22:13:48.338Z,9.18
2022-10-28T22:16:17.482Z,8.25
2022-10-28T22:18:45.524Z,7.50
2022-10-28T22:21:16.071Z,6.70
2022-10-28T22:23:43.507Z,7.10
2022-10-28T22:26:13.379Z,7.45
2022-10-28T22:28:40.897Z,7.70
2022-10-28T22:31:11.420Z,7.63
2022-10-28T22:33:39.302Z,8.15
2022-10-28T22:36:15.253Z,7.68
2022-10-28T22:38:42.930Z,7.10
2022-10-28T22:41:18.911Z,6.90
2022-10-28T22:43:49.419Z,7.35
2022-10-28T22:46:18.137Z,7.22
2022-10-28T22:48:46.307Z,8.38
2022-10-28T22:51:16.293Z,6.95
2022-10-28T22:53:44.097Z,6.97
2022-10-28T22:56:15.822Z,7.00
2022-10-28T22:58:43.030Z,7.03
2022-10-28T23:01:16.816Z,7.68
2022-10-28T23:03:49.265Z,8.10
2022-10-28T23:06:19.425Z,7.80
2022-10-28T23:08:47.169Z,7.70
2022-10-28T23:11:16.522Z,7.50
2022-10-28T23:13:43.762Z,7.10
2022-10-28T23:16:15.375Z,7.13
2022-10-28T23:18:43.633Z,6.32
2022-10-28T23:21:12.036Z,6.90
2022-10-28T23:23:40.073Z,6.28
2022-10-28T23:26:09.334Z,6.00
2022-10-28T23:28:36.653Z,6.35
2022-10-28T23:31:05.447Z,5.90
2022-10-28T23:33:34.150Z,6.05
2022-10-28T23:36:05.631Z,5.45
2022-10-28T23:38:33.251Z,6.85
2022-10-28T23:41:03.454Z,6.57
2022-10-28T23:43:31.800Z,6.95
2022-10-28T23:45:59.932Z,7.10
2022-10-28T23:48:28.836Z,6.90
2022-10-28T23:50:56.768Z,5.85
2022-10-28T23:53:24.408Z,6.88
2022-10-28T23:55:51.804Z,6.75
2022-10-28T23:58:20.662Z,7.43
